sensor_id;sensor_type;location;lat;lon;timestamp;P1;P2;P0
74426;PMS7003;62859;53.906;27.430;2023-07-31T00:00:57;8;6;5.3
74426;PMS7003;62859;53.906;27.430;2023-07-31T00:05:13;6.5;6.3;5
74426;PMS7003;62859;53.906;27.430;2023-07-31T00:10:13;7;6;5
74426;PMS7003;62859;53.906;27.430;2023-07-31T00:15:43;5.7;5.3;3.7
74426;PMS7003;62859;53.906;27.430;2023-07-31T00:20:57;6.8;6;4
74426;PMS7003;62859;53.906;27.430;2023-07-31T00:25:19;7.7;6.7;5
74426;PMS7003;62859;53.906;27.430;2023-07-31T00:30:13;6;5.7;4.3
74426;PMS7003;62859;53.906;27.430;2023-07-31T00:35:43;6.7;6.3;5
74426;PMS7003;62859;53.906;27.430;2023-07-31T00:40:27;7.3;6.8;5.5
74426;PMS7003;62859;53.906;27.430;2023-07-31T00:45:41;7.3;6.7;5
74426;PMS7003;62859;53.906;27.430;2023-07-31T00:50:13;6.3;6.3;4.3
74426;PMS7003;62859;53.906;27.430;2023-07-31T00:55:57;6.3;5.7;4.7
74426;PMS7003;62859;53.906;27.430;2023-07-31T01:00:27;8.3;7.3;5.3
74426;PMS7003;62859;53.906;27.430;2023-07-31T01:05:34;6.7;5.7;5
74426;PMS7003;62859;53.906;27.430;2023-07-31T01:10:58;7;7;5.3
74426;PMS7003;62859;53.906;27.430;2023-07-31T01:15:43;6.7;6.3;4.7
74426;PMS7003;62859;53.906;27.430;2023-07-31T01:20:22;6.5;6.5;5
74426;PMS7003;62859;53.906;27.430;2023-07-31T01:25:35;7.3;6;4.7
74426;PMS7003;62859;53.906;27.430;2023-07-31T01:30:41;8;6.7;4.7
74426;PMS7003;62859;53.906;27.430;2023-07-31T01:35:13;8;7.7;6
74426;PMS7003;62859;53.906;27.430;2023-07-31T01:40:33;7.5;6.8;5.3
74426;PMS7003;62859;53.906;27.430;2023-07-31T01:45:57;7.7;7.7;5
74426;PMS7003;62859;53.906;27.430;2023-07-31T01:50:41;8;7;5.3
74426;PMS7003;62859;53.906;27.430;2023-07-31T01:55:19;8;7;5.7
74426;PMS7003;62859;53.906;27.430;2023-07-31T02:00:31;7.8;7.3;6.3
74426;PMS7003;62859;53.906;27.430;2023-07-31T02:05:19;10.7;8.7;6.3
74426;PMS7003;62859;53.906;27.430;2023-07-31T02:10:13;9;7.7;5.3
74426;PMS7003;62859;53.906;27.430;2023-07-31T02:15:33;8.8;7.8;5.5
74426;PMS7003;62859;53.906;27.430;2023-07-31T02:20:48;11;9.7;6.3
74426;PMS7003;62859;53.906;27.430;2023-07-31T02:25:41;8.3;8.3;6.7
74426;PMS7003;62859;53.906;27.430;2023-07-31T02:30:43;11.3;10.3;7.3
74426;PMS7003;62859;53.906;27.430;2023-07-31T02:35:31;8.5;8;6
74426;PMS7003;62859;53.906;27.430;2023-07-31T02:40:13;10;8.7;7
74426;PMS7003;62859;53.906;27.430;2023-07-31T02:45:13;8.3;8.3;6.3
74426;PMS7003;62859;53.906;27.430;2023-07-31T02:50:58;11.3;10.3;7.3
74426;PMS7003;62859;53.906;27.430;2023-07-31T02:55:27;12;10;7.8
74426;PMS7003;62859;53.906;27.430;2023-07-31T03:00:41;11.3;11;8
74426;PMS7003;62859;53.906;27.430;2023-07-31T03:05:57;11;10;7.3
74426;PMS7003;62859;53.906;27.430;2023-07-31T03:10:47;10.3;8.7;6.7
74426;PMS7003;62859;53.906;27.430;2023-07-31T03:15:13;10;9;6.5
74426;PMS7003;62859;53.906;27.430;2023-07-31T03:20:47;10;8;6.3
74426;PMS7003;62859;53.906;27.430;2023-07-31T03:25:57;8.7;8.3;5.7
74426;PMS7003;62859;53.906;27.430;2023-07-31T03:30:57;6;5.7;5
74426;PMS7003;62859;53.906;27.430;2023-07-31T03:35:57;8.5;6.8;5.3
74426;PMS7003;62859;53.906;27.430;2023-07-31T03:40:57;7.3;7;5.3
74426;PMS7003;62859;53.906;27.430;2023-07-31T03:45:27;6.7;6.7;5.3
74426;PMS7003;62859;53.906;27.430;2023-07-31T03:50:19;9.7;8.3;6.3
74426;PMS7003;62859;53.906;27.430;2023-07-31T03:55:43;11;8.8;6
74426;PMS7003;62859;53.906;27.430;2023-07-31T04:00:57;9.7;8.7;6.7
74426;PMS7003;62859;53.906;27.430;2023-07-31T04:05:43;10.7;9.3;7
74426;PMS7003;62859;53.906;27.430;2023-07-31T04:10:47;10.5;9.8;7.5
74426;PMS7003;62859;53.906;27.430;2023-07-31T04:15:48;10.3;9.3;7.3
74426;PMS7003;62859;53.906;27.430;2023-07-31T04:20:19;10.3;10;7
74426;PMS7003;62859;53.906;27.430;2023-07-31T04:25:57;12;11;8
74426;PMS7003;62859;53.906;27.430;2023-07-31T04:30:33;10.8;10.3;8
74426;PMS7003;62859;53.906;27.430;2023-07-31T04:35:27;13.7;11.7;8.3
74426;PMS7003;62859;53.906;27.430;2023-07-31T04:40:43;12.7;11.7;8.7
74426;PMS7003;62859;53.906;27.430;2023-07-31T04:45:45;13;11.3;8.3
74426;PMS7003;62859;53.906;27.430;2023-07-31T04:50:19;16.3;14.8;10.8
74426;PMS7003;62859;53.906;27.430;2023-07-31T04:55:13;21.3;19;14.3
74426;PMS7003;62859;53.906;27.430;2023-07-31T05:00:41;23.7;22.7;15.3
74426;PMS7003;62859;53.906;27.430;2023-07-31T05:05:31;16.3;15;10.7
74426;PMS7003;62859;53.906;27.430;2023-07-31T05:10:25;12.3;10.7;7.3
74426;PMS7003;62859;53.906;27.430;2023-07-31T05:15:29;11;10.3;7.7
74426;PMS7003;62859;53.906;27.430;2023-07-31T05:20:55;9.7;8.3;6.7
74426;PMS7003;62859;53.906;27.430;2023-07-31T05:25:17;10.3;9.3;6.8
74426;PMS7003;62859;53.906;27.430;2023-07-31T05:30:17;11;10;7.7
74426;PMS7003;62859;53.906;27.430;2023-07-31T05:35:55;10.7;10.7;7.7
74426;PMS7003;62859;53.906;27.430;2023-07-31T05:40:39;13;11.3;8.7
74426;PMS7003;62859;53.906;27.430;2023-07-31T05:45:41;11.8;10.5;7.8
74426;PMS7003;62859;53.906;27.430;2023-07-31T05:50:13;9.3;9;7
74426;PMS7003;62859;53.906;27.430;2023-07-31T05:55:31;8.7;8.7;6.7
74426;PMS7003;62859;53.906;27.430;2023-07-31T06:00:13;10.3;10.3;8
74426;PMS7003;62859;53.906;27.430;2023-07-31T06:05:55;9.8;8.3;5.5
74426;PMS7003;62859;53.906;27.430;2023-07-31T06:10:55;6.7;6.3;5
74426;PMS7003;62859;53.906;27.430;2023-07-31T06:15:39;7;6;5
74426;PMS7003;62859;53.906;27.430;2023-07-31T06:20:25;7.3;6.3;5.3
74426;PMS7003;62859;53.906;27.430;2023-07-31T06:25:25;8.3;7.3;5.8
74426;PMS7003;62859;53.906;27.430;2023-07-31T06:30:13;7;5.3;4.3
74426;PMS7003;62859;53.906;27.430;2023-07-31T06:35:13;5.3;5;4.3
74426;PMS7003;62859;53.906;27.430;2023-07-31T06:40:31;7.7;6.3;4.7
74426;PMS7003;62859;53.906;27.430;2023-07-31T06:45:43;7.8;6.5;4.8
74426;PMS7003;62859;53.906;27.430;2023-07-31T06:50:15;4.3;4;2.7
74426;PMS7003;62859;53.906;27.430;2023-07-31T06:55:38;5.3;4.7;3.3
74426;PMS7003;62859;53.906;27.430;2023-07-31T07:00:27;4.5;4.5;2.8
74426;PMS7003;62859;53.906;27.430;2023-07-31T07:05:13;3.3;3;2
74426;PMS7003;62859;53.906;27.430;2023-07-31T07:10:17;3.7;3.7;2.7
74426;PMS7003;62859;53.906;27.430;2023-07-31T07:15:53;2.3;2.3;2
74426;PMS7003;62859;53.906;27.430;2023-07-31T07:20:25;3;2.8;1.5
74426;PMS7003;62859;53.906;27.430;2023-07-31T07:25:37;3;2.7;2
74426;PMS7003;62859;53.906;27.430;2023-07-31T07:30:53;4.3;3;2.3
74426;PMS7003;62859;53.906;27.430;2023-07-31T07:35:39;2;1.7;1
74426;PMS7003;62859;53.906;27.430;2023-07-31T07:40:13;1.5;1.5;1
74426;PMS7003;62859;53.906;27.430;2023-07-31T07:45:19;1.3;1.3;1
74426;PMS7003;62859;53.906;27.430;2023-07-31T07:50:53;3;3;1.7
74426;PMS7003;62859;53.906;27.430;2023-07-31T07:55:53;3.7;2.3;2.3
74426;PMS7003;62859;53.906;27.430;2023-07-31T08:00:53;3;2.8;2
74426;PMS7003;62859;53.906;27.430;2023-07-31T08:05:57;3.3;3;2.7
74426;PMS7003;62859;53.906;27.430;2023-07-31T08:10:13;5.7;4.7;2.3
74426;PMS7003;62859;53.906;27.430;2023-07-31T08:15:17;3.7;3;2
74426;PMS7003;62859;53.906;27.430;2023-07-31T08:20:29;5.8;5.3;4.3
74426;PMS7003;62859;53.906;27.430;2023-07-31T08:25:53;5;3.7;3.3
74426;PMS7003;62859;53.906;27.430;2023-07-31T08:30:41;1.3;1.3;1
74426;PMS7003;62859;53.906;27.430;2023-07-31T08:35:53;6.7;6.7;4.3
74426;PMS7003;62859;53.906;27.430;2023-07-31T08:40:53;3.8;3.8;2.8
74426;PMS7003;62859;53.906;27.430;2023-07-31T08:45:13;2;2;1.7
74426;PMS7003;62859;53.906;27.430;2023-07-31T08:50:31;2.3;2;1.7
74426;PMS7003;62859;53.906;27.430;2023-07-31T08:55:32;1.8;1.8;1
74426;PMS7003;62859;53.906;27.430;2023-07-31T09:00:53;1.7;1.7;1.7
74426;PMS7003;62859;53.906;27.430;2023-07-31T09:05:42;2;1.3;0.7
74426;PMS7003;62859;53.906;27.430;2023-07-31T09:10:53;2.7;2.3;1.7
74426;PMS7003;62859;53.906;27.430;2023-07-31T09:15:17;3.3;2.5;2
74426;PMS7003;62859;53.906;27.430;2023-07-31T09:20:23;2.7;1.7;1.3
74426;PMS7003;62859;53.906;27.430;2023-07-31T09:25:43;4;3.3;2.3
74426;PMS7003;62859;53.906;27.430;2023-07-31T09:30:13;2;2;1.3
74426;PMS7003;62859;53.906;27.430;2023-07-31T09:35:22;3.3;2.5;2
74426;PMS7003;62859;53.906;27.430;2023-07-31T09:40:14;1.7;1.7;1.3
74426;PMS7003;62859;53.906;27.430;2023-07-31T09:45:54;2.3;2.3;1.7
74426;PMS7003;62859;53.906;27.430;2023-07-31T09:50:13;1.7;1;0.7
74426;PMS7003;62859;53.906;27.430;2023-07-31T09:55:25;2.5;2.3;1.3
74426;PMS7003;62859;53.906;27.430;2023-07-31T10:00:57;2.3;2.3;1.3
74426;PMS7003;62859;53.906;27.430;2023-07-31T10:05:42;2.7;2;1.7
74426;PMS7003;62859;53.906;27.430;2023-07-31T10:10:13;2.7;1.7;1.7
74426;PMS7003;62859;53.906;27.430;2023-07-31T10:15:29;3.5;2.8;1.8
74426;PMS7003;62859;53.906;27.430;2023-07-31T10:20:39;3;2.3;1
74426;PMS7003;62859;53.906;27.430;2023-07-31T10:25:13;5.7;4;3
74426;PMS7003;62859;53.906;27.430;2023-07-31T10:30:32;3.3;2.7;2.3
74426;PMS7003;62859;53.906;27.430;2023-07-31T10:36:11;3.8;2.8;1.8
74426;PMS7003;62859;53.906;27.430;2023-07-31T10:40:39;2.3;2.3;2
74426;PMS7003;62859;53.906;27.430;2023-07-31T10:45:23;4.3;4;2.7
74426;PMS7003;62859;53.906;27.430;2023-07-31T10:50:29;2.8;2.5;1.8
74426;PMS7003;62859;53.906;27.430;2023-07-31T10:55:40;2.3;2.3;1.7
74426;PMS7003;62859;53.906;27.430;2023-07-31T11:00:22;3;2.7;1.3
74426;PMS7003;62859;53.906;27.430;2023-07-31T11:05:47;4;3.3;2.7
74426;PMS7003;62859;53.906;27.430;2023-07-31T11:10:45;3;2.3;2
74426;PMS7003;62859;53.906;27.430;2023-07-31T11:15:39;3.7;2.7;2.7
74426;PMS7003;62859;53.906;27.430;2023-07-31T11:20:19;2.7;2;1.3
74426;PMS7003;62859;53.906;27.430;2023-07-31T11:25:29;2.3;2.3;2
74426;PMS7003;62859;53.906;27.430;2023-07-31T11:30:18;3.7;3.3;2.3
74426;PMS7003;62859;53.906;27.430;2023-07-31T11:35:13;2.7;2.3;1.7
74426;PMS7003;62859;53.906;27.430;2023-07-31T11:40:56;2.7;2.7;2
74426;PMS7003;62859;53.906;27.430;2023-07-31T11:45:13;5.3;5;4
74426;PMS7003;62859;53.906;27.430;2023-07-31T11:50:32;2;2;1.5
74426;PMS7003;62859;53.906;27.430;2023-07-31T11:55:55;5.7;5;4.7
74426;PMS7003;62859;53.906;27.430;2023-07-31T12:00:45;15.3;15.3;14.3
74426;PMS7003;62859;53.906;27.430;2023-07-31T12:05:39;14;14;12.3
74426;PMS7003;62859;53.906;27.430;2023-07-31T12:10:23;3.3;3;2.5
74426;PMS7003;62859;53.906;27.430;2023-07-31T12:15:56;3.7;2.7;2
74426;PMS7003;62859;53.906;27.430;2023-07-31T12:20:42;3.3;2.7;2.3
74426;PMS7003;62859;53.906;27.430;2023-07-31T12:26:03;2.7;2;2
74426;PMS7003;62859;53.906;27.430;2023-07-31T12:30:49;2.8;2.8;2.3
74426;PMS7003;62859;53.906;27.430;2023-07-31T12:35:17;4.7;3.3;2.7
74426;PMS7003;62859;53.906;27.430;2023-07-31T12:40:17;4.7;3.7;2.7
74426;PMS7003;62859;53.906;27.430;2023-07-31T12:45:15;4.8;4.8;3.3
74426;PMS7003;62859;53.906;27.430;2023-07-31T12:50:57;6;4.7;3.7
74426;PMS7003;62859;53.906;27.430;2023-07-31T12:55:15;2.7;2.7;2
74426;PMS7003;62859;53.906;27.430;2023-07-31T13:00:15;3;2;1.3
74426;PMS7003;62859;53.906;27.430;2023-07-31T13:05:57;2.8;2.5;1.8
74426;PMS7003;62859;53.906;27.430;2023-07-31T13:10:25;4.3;3.3;2
74426;PMS7003;62859;53.906;27.430;2023-07-31T13:15:17;4.7;4.7;3.3
74426;PMS7003;62859;53.906;27.430;2023-07-31T13:20:31;5;3.7;2.7
74426;PMS7003;62859;53.906;27.430;2023-07-31T13:25:57;3.3;3.3;2.5
74426;PMS7003;62859;53.906;27.430;2023-07-31T13:30:41;2;1.7;1.3
74426;PMS7003;62859;53.906;27.430;2023-07-31T13:35:47;3;2.7;2
74426;PMS7003;62859;53.906;27.430;2023-07-31T13:40:31;4.3;3;2.3
74426;PMS7003;62859;53.906;27.430;2023-07-31T13:45:13;3.8;3;2
74426;PMS7003;62859;53.906;27.430;2023-07-31T13:50:55;3.3;3;2.3
74426;PMS7003;62859;53.906;27.430;2023-07-31T13:55:17;3.3;3;2
74426;PMS7003;62859;53.906;27.430;2023-07-31T14:00:13;4;3.3;2.3
74426;PMS7003;62859;53.906;27.430;2023-07-31T14:05:41;2.5;2.3;1.8
74426;PMS7003;62859;53.906;27.430;2023-07-31T14:10:57;3.7;3.7;2.3
74426;PMS7003;62859;53.906;27.430;2023-07-31T14:15:17;3;3;2.3
74426;PMS7003;62859;53.906;27.430;2023-07-31T14:20:13;2.3;1.7;1
74426;PMS7003;62859;53.906;27.430;2023-07-31T14:25:41;2.8;2.3;1.5
74426;PMS7003;62859;53.906;27.430;2023-07-31T14:30:31;1.7;1.7;1.3
74426;PMS7003;62859;53.906;27.430;2023-07-31T14:35:25;3.3;3.3;2.3
74426;PMS7003;62859;53.906;27.430;2023-07-31T14:40:13;3.5;3;2.3
74426;PMS7003;62859;53.906;27.430;2023-07-31T14:45:41;3.7;2.7;1.7
74426;PMS7003;62859;53.906;27.430;2023-07-31T14:50:17;3.3;3;2
74426;PMS7003;62859;53.906;27.430;2023-07-31T14:55:47;3.3;2.7;2.3
74426;PMS7003;62859;53.906;27.430;2023-07-31T15:00:57;3.8;3;2.3
74426;PMS7003;62859;53.906;27.430;2023-07-31T15:05:41;4.7;3.7;3
74426;PMS7003;62859;53.906;27.430;2023-07-31T15:10:21;4.3;4;3.7
74426;PMS7003;62859;53.906;27.430;2023-07-31T15:15:31;3.3;3.3;2.7
74426;PMS7003;62859;53.906;27.430;2023-07-31T15:20:13;6;5.8;3.3
74426;PMS7003;62859;53.906;27.430;2023-07-31T15:25:25;5.7;4.7;3.3
74426;PMS7003;62859;53.906;27.430;2023-07-31T15:30:13;6.3;4.7;2.7
74426;PMS7003;62859;53.906;27.430;2023-07-31T15:35:43;6.3;6;4.3
74426;PMS7003;62859;53.906;27.430;2023-07-31T15:40:41;6.8;5.8;4.3
74426;PMS7003;62859;53.906;27.430;2023-07-31T15:45:39;6.3;5.3;4.3
74426;PMS7003;62859;53.906;27.430;2023-07-31T15:50:13;6;6;4.7
74426;PMS7003;62859;53.906;27.430;2023-07-31T15:55:13;5.3;5;3.3
74426;PMS7003;62859;53.906;27.430;2023-07-31T16:00:13;6;6;4.5
74426;PMS7003;62859;53.906;27.430;2023-07-31T16:05:57;7;6;4.3
74426;PMS7003;62859;53.906;27.430;2023-07-31T16:10:25;7.7;6.3;4.7
74426;PMS7003;62859;53.906;27.430;2023-07-31T16:15:15;7.3;6.3;5.3
74426;PMS7003;62859;53.906;27.430;2023-07-31T16:20:57;9.3;8.5;6.3
74426;PMS7003;62859;53.906;27.430;2023-07-31T16:25:47;7.7;7;5.3
74426;PMS7003;62859;53.906;27.430;2023-07-31T16:30:13;7.3;7;5
74426;PMS7003;62859;53.906;27.430;2023-07-31T16:35:47;6.3;5.5;4.5
74426;PMS7003;62859;53.906;27.430;2023-07-31T16:40:57;9.7;8.3;6.3
74426;PMS7003;62859;53.906;27.430;2023-07-31T16:45:55;7.3;6.3;5
74426;PMS7003;62859;53.906;27.430;2023-07-31T16:50:55;5.7;5.7;4.3
74426;PMS7003;62859;53.906;27.430;2023-07-31T16:55:57;5.8;5.5;4
74426;PMS7003;62859;53.906;27.430;2023-07-31T17:00:37;4;4;3
74426;PMS7003;62859;53.906;27.430;2023-07-31T17:05:27;6.3;4.7;4
74426;PMS7003;62859;53.906;27.430;2023-07-31T17:10:47;4.7;4.3;3.7
74426;PMS7003;62859;53.906;27.430;2023-07-31T17:15:57;4.8;3.5;2.5
74426;PMS7003;62859;53.906;27.430;2023-07-31T17:20:55;7.7;7.3;4
74426;PMS7003;62859;53.906;27.430;2023-07-31T17:25:47;5.7;5.3;3.7
74426;PMS7003;62859;53.906;27.430;2023-07-31T17:30:57;7.7;6.7;5
74426;PMS7003;62859;53.906;27.430;2023-07-31T17:35:13;6.3;5.5;4.3
74426;PMS7003;62859;53.906;27.430;2023-07-31T17:40:17;7;6;4
74426;PMS7003;62859;53.906;27.430;2023-07-31T17:45:32;6.3;5;4.7
74426;PMS7003;62859;53.906;27.430;2023-07-31T17:50:59;6;5.3;3.3
74426;PMS7003;62859;53.906;27.430;2023-07-31T17:55:35;6;5.8;4
74426;PMS7003;62859;53.906;27.430;2023-07-31T18:00:50;6;5.7;4.3
74426;PMS7003;62859;53.906;27.430;2023-07-31T18:05:34;7.3;6;5
74426;PMS7003;62859;53.906;27.430;2023-07-31T18:10:19;7;6.3;5.3
74426;PMS7003;62859;53.906;27.430;2023-07-31T18:15:59;6.5;6.3;5
74426;PMS7003;62859;53.906;27.430;2023-07-31T18:20:29;9.3;8;5.3
74426;PMS7003;62859;53.906;27.430;2023-07-31T18:25:15;9;6.3;4.7
74426;PMS7003;62859;53.906;27.430;2023-07-31T18:30:29;8.3;8.3;6.5
74426;PMS7003;62859;53.906;27.430;2023-07-31T18:36:01;8.3;7.3;5.3
74426;PMS7003;62859;53.906;27.430;2023-07-31T18:40:29;7.3;6.7;4.3
74426;PMS7003;62859;53.906;27.430;2023-07-31T18:45:19;7.3;7;5.3
74426;PMS7003;62859;53.906;27.430;2023-07-31T18:50:43;8.3;7.8;6
74426;PMS7003;62859;53.906;27.430;2023-07-31T18:55:33;10;8.7;7
74426;PMS7003;62859;53.906;27.430;2023-07-31T19:00:23;9.3;9;6
74426;PMS7003;62859;53.906;27.430;2023-07-31T19:05:33;7.7;7.3;5
74426;PMS7003;62859;53.906;27.430;2023-07-31T19:10:59;9;8.5;6
74426;PMS7003;62859;53.906;27.430;2023-07-31T19:15:15;7.7;6.7;5.7
74426;PMS7003;62859;53.906;27.430;2023-07-31T19:20:33;8.3;7;5
74426;PMS7003;62859;53.906;27.430;2023-07-31T19:25:59;9.7;8;6
74426;PMS7003;62859;53.906;27.430;2023-07-31T19:30:43;8;8;5.8
74426;PMS7003;62859;53.906;27.430;2023-07-31T19:35:27;10.7;8.3;6.3
74426;PMS7003;62859;53.906;27.430;2023-07-31T19:40:33;8.7;8;6
74426;PMS7003;62859;53.906;27.430;2023-07-31T19:45:39;10.3;10;6.3
74426;PMS7003;62859;53.906;27.430;2023-07-31T19:50:33;9.8;9;6.5
74426;PMS7003;62859;53.906;27.430;2023-07-31T19:55:33;9.3;8.3;6.7
74426;PMS7003;62859;53.906;27.430;2023-07-31T20:00:57;9.3;7.7;5.7
74426;PMS7003;62859;53.906;27.430;2023-07-31T20:05:41;10.5;8.8;7
74426;PMS7003;62859;53.906;27.430;2023-07-31T20:10:43;8.7;7.3;5.3
74426;PMS7003;62859;53.906;27.430;2023-07-31T20:15:19;8.3;8.3;6
74426;PMS7003;62859;53.906;27.430;2023-07-31T20:20:19;9.7;8.7;6
74426;PMS7003;62859;53.906;27.430;2023-07-31T20:25:15;7.8;7.5;5.8
74426;PMS7003;62859;53.906;27.430;2023-07-31T20:30:59;9.3;8.7;6.7
74426;PMS7003;62859;53.906;27.430;2023-07-31T20:35:15;9;8.7;6
74426;PMS7003;62859;53.906;27.430;2023-07-31T20:40:25;10;9.7;7.3
74426;PMS7003;62859;53.906;27.430;2023-07-31T20:45:43;9.5;8.8;6.5
74426;PMS7003;62859;53.906;27.430;2023-07-31T20:50:49;8.3;7.3;5.3
74426;PMS7003;62859;53.906;27.430;2023-07-31T20:55:43;9;7.7;6
74426;PMS7003;62859;53.906;27.430;2023-07-31T21:00:49;8;8;5.7
74426;PMS7003;62859;53.906;27.430;2023-07-31T21:05:59;7.8;6.5;5.5
74426;PMS7003;62859;53.906;27.430;2023-07-31T21:10:59;8.3;7.3;5.7
74426;PMS7003;62859;53.906;27.430;2023-07-31T21:15:59;7;6;4.3
74426;PMS7003;62859;53.906;27.430;2023-07-31T21:20:59;8;7;5
74426;PMS7003;62859;53.906;27.430;2023-07-31T21:25:15;8.3;7.3;5.5
74426;PMS7003;62859;53.906;27.430;2023-07-31T21:30:33;7.7;6.3;4.7
74426;PMS7003;62859;53.906;27.430;2023-07-31T21:35:49;8.3;6.7;5
74426;PMS7003;62859;53.906;27.430;2023-07-31T21:40:55;8.3;6.3;5.3
74426;PMS7003;62859;53.906;27.430;2023-07-31T21:45:27;7;5.8;3.8
74426;PMS7003;62859;53.906;27.430;2023-07-31T21:50:49;6;5.7;4
74426;PMS7003;62859;53.906;27.430;2023-07-31T21:55:59;6.3;5.7;4.7
74426;PMS7003;62859;53.906;27.430;2023-07-31T22:00:15;4.5;4;3.3
74426;PMS7003;62859;53.906;27.430;2023-07-31T22:05:19;5.3;4.7;4
74426;PMS7003;62859;53.906;27.430;2023-07-31T22:10:33;5;5;3.3
74426;PMS7003;62859;53.906;27.430;2023-07-31T22:15:59;7;5.3;4
74426;PMS7003;62859;53.906;27.430;2023-07-31T22:20:47;6.5;5.5;3.8
74426;PMS7003;62859;53.906;27.430;2023-07-31T22:25:50;8.3;5.7;4
74426;PMS7003;62859;53.906;27.430;2023-07-31T22:30:15;7.3;5.7;4
74426;PMS7003;62859;53.906;27.430;2023-07-31T22:35:23;9;7.7;5.3
74426;PMS7003;62859;53.906;27.430;2023-07-31T22:40:59;4.8;4.8;4
74426;PMS7003;62859;53.906;27.430;2023-07-31T22:45:49;5.3;4.7;3.7
74426;PMS7003;62859;53.906;27.430;2023-07-31T22:50:15;6.7;6;4.3
74426;PMS7003;62859;53.906;27.430;2023-07-31T22:55:43;6;5.7;4
74426;PMS7003;62859;53.906;27.430;2023-07-31T23:01:02;6.8;6.5;5
74426;PMS7003;62859;53.906;27.430;2023-07-31T23:05:19;6;5.7;5
74426;PMS7003;62859;53.906;27.430;2023-07-31T23:10:15;6.7;6.7;5
74426;PMS7003;62859;53.906;27.430;2023-07-31T23:15:17;9;8;5.3
74426;PMS7003;62859;53.906;27.430;2023-07-31T23:20:15;6.3;5.8;3.8
74426;PMS7003;62859;53.906;27.430;2023-07-31T23:25:15;8.3;6.3;5
74426;PMS7003;62859;53.906;27.430;2023-07-31T23:30:19;8.3;6.7;4.7
74426;PMS7003;62859;53.906;27.430;2023-07-31T23:36:06;7;6.3;4.7
74426;PMS7003;62859;53.906;27.430;2023-07-31T23:40:29;8.3;7.8;5.5
74426;PMS7003;62859;53.906;27.430;2023-07-31T23:45:29;7;6.3;4.3
74426;PMS7003;62859;53.906;27.430;2023-07-31T23:50:59;7.7;7.3;4.7
74426;PMS7003;62859;53.906;27.430;2023-07-31T23:55:45;8.8;6.5;4.8
